METAR v bližini

 

LJLJ - Ljubljana/Brnik, Slovenia
Oddaljenost od postaje: Z 41km
Podatki zajeti: 22/01/2018 21:00
Jasno
Jasno
 Veter iz smeri calm
Veter: Tišina
Temperatura: -1°C
Rosišče: -2°C
Vlažnost: 93%
Tlak: 1013 hPa
Stanje: Jasno
Vidljivost: večja od 10 km
2018/01/22 20:00 LJLJ 222000Z 00000KT CAVOK M01/M02 Q1013 NOSIG
LJMB - Maribor, Slovenia
Oddaljenost od postaje: SV 63km
Podatki zajeti: 22/01/2018 21:00
Jasno
Jasno
 Veter iz smeri SZ
Veter: SZ 4 km/h
Temperatura: 1°C
Rosišče: -3°C
Vlažnost: 75%
Tlak: 1012 hPa
Stanje: Jasno
Vidljivost: večja od 10 km
2018/01/22 20:00 LJMB 222000Z 32002KT CAVOK 01/M03 Q1012
 
LJPZ - Portoroz, Slovenia
Oddaljenost od postaje: JZ 130km
Podatki zajeti: 22/01/2018 21:00
Rahlo dežuje, Pretežno oblačno
Rahlo dežuje, Pretežno oblačno
 Veter iz smeri VJV
Veter: VJV 9 km/h
Temperatura: 5°C
Občutek mraza zaradi vetra: 3°C
Rosišče: 0°C
Vlažnost: 70%
Tlak: 1015 hPa
Stanje: Rahlo dežuje
Oblačnost: Pretežno oblačno
Vidljivost: 10 km
Podrobnosti o oblakih: Rahlo oblačno 1829 m
Pretežno oblačno 2438 m
2018/01/22 20:00 LJPZ 222000Z 12005KT 9999 -RA FEW060 BKN080 05/00 Q1015
LJCE - Cerklje, Slovenia
Oddaljenost od postaje: VJV 49km
Podatki zajeti: 22/01/2018 21:00
Jasno
Jasno
 Veter iz smeri ZSZ
Veter: ZSZ 6 km/h
Temperatura: 0°C
Rosišče: -2°C
Vlažnost: 87%
Tlak: 1014 hPa
Stanje: Jasno
Vidljivost: večja od 10 km
2018/01/22 20:00 LJCE 222000Z 29003KT 260V330 CAVOK M00/M02 Q1014 RMK BLU
 
LDZA - Zagreb/Pleso, Croatia
Oddaljenost od postaje: VJV 96km
Podatki zajeti: 22/01/2018 21:00
Jasno
Jasno
 Veter iz smeri VSV
Veter: VSV 4 km/h
Temperatura: 2°C
Rosišče: -3°C
Vlažnost: 70%
Tlak: 1014 hPa
Stanje: Jasno
Vidljivost: večja od 10 km
2018/01/22 20:00 LDZA 222000Z 07002KT CAVOK 02/M03 Q1014 NOSIG
LDRI - Rijeka/Omisalj, Croatia
Oddaljenost od postaje: JJZ 109km
Podatki zajeti: 22/01/2018 21:00
Rahlo oblačno
Rahlo oblačno
 Veter iz smeri V
Veter: V 7 km/h
Temperatura: 6°C
Občutek mraza zaradi vetra: 4°C
Rosišče: -2°C
Vlažnost: 57%
Tlak: 1015 hPa
Oblačnost: Rahlo oblačno
Vidljivost: 10 km
Podrobnosti o oblakih: Rahlo oblačno 2286 m
2018/01/22 20:00 LDRI 222000Z 09004KT 9999 FEW075 06/M02 Q1015
 
LDPL - Pula, Croatia
Oddaljenost od postaje: JJZ 164km
Podatki zajeti: 22/01/2018 21:00
Rahlo dežuje, Delno oblačno
Rahlo dežuje, Delno oblačno
 Veter iz smeri V
Veter: V 9 km/h
Temperatura: 6°C
Občutek mraza zaradi vetra: 4°C
Rosišče: 2°C
Vlažnost: 76%
Tlak: 1015 hPa
Stanje: Rahlo dežuje
Oblačnost: Delno oblačno
Vidljivost: 10 km
2018/01/22 20:00 LDPL 222000Z 09005KT 9999 -RA NSC 06/02 Q1015 NOSIG
LOWK - Klagenfurt(Civ/M, Austria
Oddaljenost od postaje: SZ 76km
Podatki zajeti: 22/01/2018 21:20
Pretežno oblačno
Pretežno oblačno
 Veter iz smeri ZSZ
Veter: ZSZ 6 km/h
Temperatura: 0°C
Rosišče: -5°C
Vlažnost: 69%
Tlak: 1013 hPa
Oblačnost: Pretežno oblačno
Vidljivost: 10 km
Podrobnosti o oblakih: Rahlo oblačno 2134 m
Delno oblačno 2438 m
Pretežno oblačno 2743 m
2018/01/22 20:20 LOWK 222020Z 30003KT 9999 FEW070 SCT080 BKN090 M00/M05 Q1013 NOSIG
 
LOWG - Graz (mil/Civ), Austria
Oddaljenost od postaje: SSV 100km
Podatki zajeti: 22/01/2018 21:20
Pretežno oblačno
Pretežno oblačno
 Veter iz smeri spremenljiv
Veter: spremenljiv 2 km/h
Temperatura: 0°C
Rosišče: -3°C
Vlažnost: 80%
Tlak: 1013 hPa
Oblačnost: Pretežno oblačno
Vidljivost: 10 km
Podrobnosti o oblakih: Rahlo oblačno 1524 m
Delno oblačno 2438 m
Pretežno oblačno 4267 m
2018/01/22 20:20 LOWG 222020Z VRB01KT 9999 FEW050 SCT080 BKN140 M00/M03 Q1013 R17/19//95 NOSIG
LOWZ - Zell Am See, Austria
Oddaljenost od postaje: SZ 211km
Podatki zajeti: 31/12/2016 17:00
Ni posodobljen
Jasno
Jasno
 Veter iz smeri spremenljiv
Veter: spremenljiv 4 km/h
Temperatura: -4°C
Rosišče: -7°C
Vlažnost: 80%
Tlak: 1031 hPa
Oblačnost: Jasno
2016/12/31 16:00 LOWZ 311600Z VRB02KT 50KM SKC M04/M07 Q1031
 
LOAN - Wr.neustadt East, Austria
Oddaljenost od postaje: SSV 212km
Podatki zajeti: 22/01/2018 17:00
Ni posodobljen
Rahel sneg, Plohe, Pretežno oblačno
Rahel sneg, Plohe, Pretežno oblačno
 Veter iz smeri J
Veter: J 9 km/h
Stanje: Rahel sneg, Plohe
Oblačnost: Pretežno oblačno
Vidljivost: 3 km
Podrobnosti o oblakih: Delno oblačno 183 m
Pretežno oblačno 366 m
2018/01/22 16:00 LOAN 221600Z 18005KT 2500 -SHSN SCT006ST BKN012ST
LIPQ - Ronchi Legionari, Italy
Oddaljenost od postaje: JZ 35km
Podatki zajeti: 22/01/2018 21:20
Delno oblačno
Delno oblačno
 Veter iz smeri spremenljiv
Veter: spremenljiv 4 km/h
Temperatura: 5°C
Rosišče: 0°C
Vlažnost: 70%
Tlak: 1015 hPa
Oblačnost: Delno oblačno
Vidljivost: 10 km
Podrobnosti o oblakih: Delno oblačno 1219 m
Delno oblačno 1829 m
2018/01/22 20:20 LIPQ 222020Z VRB02KT 9999 SCT040 SCT060 05/M00 Q1015
 
LIVT - Trieste, Italy
Oddaljenost od postaje: ZJZ 109km
Podatki zajeti: 22/01/2018 18:55
Ni posodobljen
Jasno
Jasno
 Veter iz smeri SV
Veter: SV 2 km/h
Temperatura: 6°C
Rosišče: 1°C
Vlažnost: 71%
Tlak: 1014 hPa
Stanje: Jasno
Vidljivost: večja od 10 km
2018/01/22 17:55 LIVT 221755Z 04001KT CAVOK 06/01 Q1014 RMK BKN BKN080 QUK / QUL / VIS MAR 20 KM VIS MIN 9999
LIVO - Tarvisio, Italy
Oddaljenost od postaje: SSZ 49km
Podatki zajeti: 22/01/2018 18:55
Ni posodobljen
Jasno
Jasno
 Veter iz smeri ZJZ
Veter: ZJZ 4 km/h
Temperatura: 0°C
Rosišče: -5°C
Vlažnost: 69%
Tlak: 1010 hPa
Stanje: Jasno
Vidljivost: večja od 10 km
2018/01/22 17:55 LIVO 221755Z 25002KT CAVOK 00/M05 Q1010 RMK BKN BKN170 VIS MIN 9999
 
LIPZ - Venezia/Tessera, Italy
Oddaljenost od postaje: ZJZ 217km
Podatki zajeti: 22/01/2018 21:20
Rahlo oblačno
Rahlo oblačno
 Veter iz smeri SV
Veter: SV 9 km/h
Temperatura: 7°C
Občutek mraza zaradi vetra: 6°C
Rosišče: 2°C
Vlažnost: 71%
Tlak: 1014 hPa
Oblačnost: Rahlo oblačno
Vidljivost: 10 km
Podrobnosti o oblakih: Rahlo oblačno 2134 m
2018/01/22 20:20 LIPZ 222020Z 05005KT 9999 FEW070 07/02 Q1014 NOSIG
LHSM - Balaton, Hungary
Oddaljenost od postaje: VSV 177km
Podatki zajeti: 22/01/2018 16:45
Ni posodobljen
Jasno
Jasno
 Veter iz smeri JJV
Veter: JJV 13 km/h
Temperatura: 3°C
Občutek mraza zaradi vetra: -1°C
Rosišče: -3°C
Vlažnost: 65%
Tlak: 1014 hPa
Stanje: Jasno
Vidljivost: večja od 10 km
2018/01/22 15:45 LHSM 221545Z 16007KT CAVOK 03/M03 Q1014